createdAt,value
2018-03-11T00:00:58.707Z,10.16
2018-03-11T00:01:58.658Z,10.19
2018-03-11T00:02:58.643Z,10.10
2018-03-11T00:03:58.633Z,10.09
2018-03-11T00:04:58.625Z,10.25
2018-03-11T00:05:58.609Z,10.16
2018-03-11T00:06:58.597Z,10.26
2018-03-11T00:07:58.604Z,10.20
2018-03-11T00:08:58.576Z,10.33
2018-03-11T00:09:58.585Z,10.33
2018-03-11T00:10:58.553Z,10.37
2018-03-11T00:11:58.542Z,10.41
2018-03-11T00:12:58.545Z,10.37
2018-03-11T00:13:58.526Z,10.33
2018-03-11T00:14:58.510Z,10.40
2018-03-11T00:15:58.500Z,10.35
2018-03-11T00:16:58.486Z,10.33
2018-03-11T00:17:58.474Z,10.48
2018-03-11T00:18:58.463Z,10.48
2018-03-11T00:19:58.452Z,10.33
2018-03-11T00:20:58.447Z,10.31
2018-03-11T00:21:58.429Z,10.33
2018-03-11T00:22:58.432Z,10.35
2018-03-11T00:23:58.467Z,10.26
2018-03-11T00:24:58.403Z,10.26
2018-03-11T00:25:58.384Z,10.16
2018-03-11T00:26:58.400Z,10.10
2018-03-11T00:27:58.392Z,10.15
2018-03-11T00:28:58.352Z,10.20
2018-03-11T00:29:58.396Z,10.19
2018-03-11T00:30:58.328Z,10.10
2018-03-11T00:31:58.318Z,10.16
2018-03-11T00:32:58.319Z,9.98
2018-03-11T00:33:58.294Z,9.99
2018-03-11T00:34:58.283Z,9.99
2018-03-11T00:35:58.272Z,10.02
2018-03-11T00:36:58.261Z,10.04
2018-03-11T00:37:58.257Z,10.02
2018-03-11T00:38:58.272Z,10.09
2018-03-11T00:39:58.227Z,10.17
2018-03-11T00:40:58.216Z,9.98
2018-03-11T00:41:58.204Z,10.05
2018-03-11T00:42:58.209Z,9.99
2018-03-11T00:43:58.182Z,10.07
2018-03-11T00:44:58.189Z,10.04
2018-03-11T00:45:58.163Z,9.95
2018-03-11T00:46:58.148Z,10.02
2018-03-11T00:47:58.137Z,10.01
2018-03-11T00:48:58.128Z,10.13
2018-03-11T00:49:58.115Z,10.19
2018-03-11T00:50:58.103Z,10.12
2018-03-11T00:51:58.095Z,10.17
2018-03-11T00:52:58.083Z,10.15
2018-03-11T00:53:58.087Z,10.15
2018-03-11T00:54:58.062Z,10.15
2018-03-11T00:55:58.090Z,10.16
2018-03-11T00:56:58.037Z,10.16
2018-03-11T00:57:58.034Z,10.17
2018-03-11T00:58:58.061Z,10.34
2018-03-11T00:59:58.002Z,10.31
2018-03-11T01:00:57.992Z,10.30
2018-03-11T01:01:58.002Z,10.30
2018-03-11T01:02:57.966Z,10.33
2018-03-11T01:03:57.955Z,10.22
2018-03-11T01:04:57.943Z,10.26
2018-03-11T01:05:57.932Z,10.25
2018-03-11T01:06:57.925Z,10.13
2018-03-11T01:07:57.925Z,10.16
2018-03-11T01:08:57.954Z,10.05
2018-03-11T01:09:57.894Z,9.99
2018-03-11T01:10:57.875Z,9.87
2018-03-11T01:11:57.890Z,9.92
2018-03-11T01:12:57.880Z,10.01
2018-03-11T01:13:57.840Z,10.05
2018-03-11T01:14:58.044Z,10.05
2018-03-11T01:15:57.818Z,9.89
2018-03-11T01:16:57.807Z,9.87
2018-03-11T01:17:57.810Z,9.87
2018-03-11T01:18:57.784Z,9.91
2018-03-11T01:19:57.772Z,9.91
2018-03-11T01:20:57.762Z,9.86
2018-03-11T01:21:57.749Z,9.99
2018-03-11T01:22:57.749Z,9.99
2018-03-11T01:23:57.760Z,10.05
2018-03-11T01:24:57.715Z,10.09
2018-03-11T01:25:57.703Z,9.97
2018-03-11T01:26:57.692Z,10.01
2018-03-11T01:27:57.699Z,10.01
2018-03-11T01:28:57.669Z,10.07
2018-03-11T01:29:57.676Z,10.15
2018-03-11T01:30:57.645Z,10.05
2018-03-11T01:31:57.634Z,10.17
2018-03-11T01:32:57.624Z,10.05
2018-03-11T01:33:57.610Z,10.05
2018-03-11T01:34:57.612Z,10.13
2018-03-11T01:35:57.588Z,10.02
2018-03-11T01:36:57.577Z,10.01
2018-03-11T01:37:57.564Z,9.95
2018-03-11T01:38:57.576Z,9.99
2018-03-11T01:39:57.542Z,9.95
2018-03-11T01:40:57.738Z,9.94
2018-03-11T01:41:57.518Z,9.87
2018-03-11T01:42:57.522Z,9.82
2018-03-11T01:44:57.494Z,9.65
2018-03-11T01:45:57.472Z,9.65
2018-03-11T01:46:57.492Z,9.66
2018-03-11T01:47:57.451Z,9.65
2018-03-11T01:48:57.439Z,9.59
2018-03-11T01:49:57.427Z,9.56
2018-03-11T01:50:57.416Z,9.48
2018-03-11T01:51:57.405Z,9.59
2018-03-11T01:52:57.406Z,9.55
2018-03-11T01:53:57.398Z,9.56
2018-03-11T01:54:57.371Z,9.54
2018-03-11T01:55:57.371Z,9.58
2018-03-11T01:56:57.348Z,9.56
2018-03-11T01:57:57.345Z,9.56
2018-03-11T01:58:57.360Z,9.62
2018-03-11T01:59:57.313Z,9.59
2018-03-11T02:00:57.303Z,9.64
2018-03-11T02:01:57.291Z,9.56
2018-03-11T02:02:57.280Z,9.64
2018-03-11T02:03:57.268Z,9.61
2018-03-11T02:04:57.257Z,9.62
2018-03-11T02:05:57.245Z,9.66
2018-03-11T02:06:57.237Z,9.69
2018-03-11T02:07:57.229Z,9.89
2018-03-11T02:08:57.253Z,9.74
2018-03-11T02:09:57.201Z,9.80
2018-03-11T02:10:57.188Z,9.79
2018-03-11T02:11:57.176Z,9.79
2018-03-11T02:12:57.167Z,9.74
2018-03-11T02:13:57.154Z,9.64
2018-03-11T02:14:57.164Z,9.68
2018-03-11T02:15:57.130Z,9.69
2018-03-11T02:16:57.119Z,9.62
2018-03-11T02:17:57.106Z,9.68
2018-03-11T02:18:57.095Z,9.66
2018-03-11T02:19:57.084Z,9.62
2018-03-11T02:20:57.073Z,9.62
2018-03-11T02:21:57.060Z,9.64
2018-03-11T02:22:57.050Z,9.65
2018-03-11T02:23:57.067Z,9.65
2018-03-11T02:24:57.028Z,9.69
2018-03-11T02:25:57.065Z,9.74
2018-03-11T02:26:57.004Z,9.79
2018-03-11T02:27:56.995Z,9.84
2018-03-11T02:28:56.990Z,9.79
2018-03-11T02:29:56.983Z,9.83
2018-03-11T02:30:56.959Z,9.89
2018-03-11T02:31:56.986Z,9.91
2018-03-11T02:32:56.936Z,9.99
2018-03-11T02:33:56.923Z,9.95
2018-03-11T02:34:56.913Z,9.94
2018-03-11T02:35:56.902Z,9.89
2018-03-11T02:36:56.890Z,9.89
2018-03-11T02:37:56.877Z,9.92
2018-03-11T02:38:56.885Z,9.97
2018-03-11T02:39:56.855Z,9.97
2018-03-11T02:40:56.860Z,9.86
2018-03-11T02:41:56.832Z,9.84
2018-03-11T02:42:56.824Z,9.98
2018-03-11T02:43:56.850Z,10.01
2018-03-11T02:44:56.801Z,10.01
2018-03-11T02:45:56.787Z,10.02
2018-03-11T02:46:56.777Z,9.95
2018-03-11T02:47:56.764Z,9.99
2018-03-11T02:48:56.753Z,9.94
2018-03-11T02:49:56.741Z,10.02
2018-03-11T02:50:56.729Z,10.02
2018-03-11T02:51:56.723Z,9.94
2018-03-11T02:52:56.710Z,9.99
2018-03-11T02:53:56.708Z,10.07
2018-03-11T02:54:56.740Z,9.97
2018-03-11T02:55:56.678Z,10.01
2018-03-11T02:56:56.662Z,9.89
2018-03-11T02:57:56.673Z,9.91
2018-03-11T02:58:56.666Z,9.95
2018-03-11T02:59:56.627Z,9.86
2018-03-11T03:00:56.662Z,9.92
2018-03-11T03:01:56.605Z,9.94
2018-03-11T03:02:56.594Z,9.95
2018-03-11T03:03:56.593Z,9.95
2018-03-11T03:04:56.575Z,10.07
2018-03-11T03:05:56.559Z,10.05
2018-03-11T03:06:56.549Z,10.05
2018-03-11T03:07:56.542Z,10.17
2018-03-11T03:08:56.563Z,10.26
2018-03-11T03:09:56.523Z,10.41
2018-03-11T03:10:56.504Z,10.31
2018-03-11T03:11:56.516Z,10.51
2018-03-11T03:12:56.482Z,10.56
2018-03-11T03:13:56.473Z,10.56
2018-03-11T03:14:56.489Z,10.60
2018-03-11T03:15:56.448Z,10.71
2018-03-11T03:16:56.439Z,10.71
2018-03-11T03:17:56.426Z,10.61
2018-03-11T03:18:56.414Z,10.68
2018-03-11T03:19:56.407Z,10.72
2018-03-11T03:20:56.393Z,10.76
2018-03-11T03:21:56.381Z,10.82
2018-03-11T03:22:56.370Z,10.79
2018-03-11T03:23:56.388Z,10.81
2018-03-11T03:24:56.349Z,10.81
2018-03-11T03:25:56.383Z,10.79
2018-03-11T03:26:56.325Z,10.75
2018-03-11T03:27:56.319Z,10.78
2018-03-11T03:28:56.311Z,10.84
2018-03-11T03:29:56.303Z,10.79
2018-03-11T03:30:56.283Z,10.79
2018-03-11T03:31:56.301Z,10.82
2018-03-11T03:32:56.261Z,10.75
2018-03-11T03:33:56.249Z,10.86
2018-03-11T03:34:56.238Z,10.81
2018-03-11T03:35:56.228Z,10.78
2018-03-11T03:36:56.216Z,10.76
2018-03-11T03:37:56.223Z,10.76
2018-03-11T03:38:56.396Z,10.72
2018-03-11T03:39:56.183Z,10.71
2018-03-11T03:40:56.181Z,10.71
2018-03-11T03:41:56.161Z,10.74
2018-03-11T03:42:56.156Z,10.59
2018-03-11T03:43:56.169Z,10.67
2018-03-11T03:44:56.128Z,10.68
2018-03-11T03:45:56.117Z,10.68
2018-03-11T03:46:56.105Z,10.59
2018-03-11T03:47:56.095Z,10.51
2018-03-11T03:48:56.083Z,10.71
2018-03-11T03:49:56.072Z,10.64
2018-03-11T03:50:56.061Z,10.53
2018-03-11T03:51:56.051Z,10.64
2018-03-11T03:52:56.064Z,10.60
2018-03-11T03:53:56.029Z,10.63
2018-03-11T03:54:56.236Z,10.56
2018-03-11T03:55:56.011Z,10.64
2018-03-11T03:56:55.996Z,10.60
2018-03-11T03:57:55.996Z,10.59
2018-03-11T03:58:55.987Z,10.57
2018-03-11T03:59:55.965Z,10.54
2018-03-11T04:00:55.988Z,10.60
2018-03-11T04:01:55.941Z,10.57
2018-03-11T04:02:55.930Z,10.57
2018-03-11T04:03:55.919Z,10.60
2018-03-11T04:04:55.909Z,10.61
2018-03-11T04:05:55.897Z,10.63
2018-03-11T04:06:55.886Z,10.63
2018-03-11T04:07:55.885Z,10.60
2018-03-11T04:08:56.090Z,10.60
2018-03-11T04:09:55.856Z,10.60
2018-03-11T04:10:55.841Z,10.60
2018-03-11T04:11:55.850Z,10.54
2018-03-11T04:12:55.844Z,10.60
2018-03-11T04:13:55.807Z,10.59
2018-03-11T04:15:55.787Z,10.54
2018-03-11T04:16:55.776Z,10.54
2018-03-11T04:17:55.796Z,10.51
2018-03-11T04:18:55.752Z,10.42
2018-03-11T04:19:55.742Z,10.42
2018-03-11T04:20:55.731Z,10.41
2018-03-11T04:21:55.740Z,10.31
2018-03-11T04:22:55.713Z,10.30
2018-03-11T04:23:55.732Z,10.35
2018-03-11T04:24:55.689Z,10.31
2018-03-11T04:25:55.675Z,10.25
2018-03-11T04:26:55.665Z,10.34
2018-03-11T04:27:55.661Z,10.22
2018-03-11T04:28:55.646Z,10.19
2018-03-11T04:29:55.638Z,10.20
2018-03-11T04:30:55.619Z,10.22
2018-03-11T04:31:55.608Z,10.17
2018-03-11T04:32:55.598Z,10.23
2018-03-11T04:33:55.589Z,10.19
2018-03-11T04:34:55.574Z,10.20
2018-03-11T04:35:55.567Z,10.20
2018-03-11T04:36:55.569Z,10.22
2018-03-11T04:37:55.771Z,10.33
2018-03-11T04:38:55.541Z,10.33
2018-03-11T04:39:55.518Z,10.34
2018-03-11T04:40:55.537Z,10.31
2018-03-11T04:41:55.523Z,10.28
2018-03-11T04:42:55.485Z,10.23
2018-03-11T04:43:55.696Z,10.23
2018-03-11T04:44:55.461Z,10.22
2018-03-11T04:45:55.449Z,10.25
2018-03-11T04:46:55.447Z,10.15
2018-03-11T04:47:55.427Z,10.20
2018-03-11T04:48:55.415Z,10.25
2018-03-11T04:49:55.403Z,10.22
2018-03-11T04:50:55.391Z,10.22
2018-03-11T04:51:55.388Z,10.22
2018-03-11T04:52:55.408Z,10.25
2018-03-11T04:53:55.358Z,10.22
2018-03-11T04:54:55.344Z,10.10
2018-03-11T04:55:55.335Z,10.13
2018-03-11T04:56:55.336Z,10.13
2018-03-11T04:57:55.309Z,10.19
2018-03-11T04:58:55.324Z,10.13
2018-03-11T04:59:55.288Z,10.15
2018-03-11T05:00:55.275Z,10.10
2018-03-11T05:01:55.264Z,10.13
2018-03-11T05:02:55.252Z,10.15
2018-03-11T05:03:55.241Z,10.17
2018-03-11T05:04:55.230Z,10.13
2018-03-11T05:05:55.219Z,10.16
2018-03-11T05:06:55.207Z,10.09
2018-03-11T05:07:55.206Z,10.10
2018-03-11T05:08:55.242Z,10.09
2018-03-11T05:09:55.174Z,10.19
2018-03-11T05:10:55.161Z,10.10
2018-03-11T05:11:55.176Z,10.17
2018-03-11T05:12:55.162Z,10.05
2018-03-11T05:13:55.126Z,10.10
2018-03-11T05:14:55.162Z,10.04
2018-03-11T05:15:55.104Z,10.15
2018-03-11T05:16:55.094Z,10.01
2018-03-11T05:17:55.086Z,10.09
2018-03-11T05:18:55.071Z,10.07
2018-03-11T05:19:55.060Z,10.10
2018-03-11T05:20:55.049Z,10.01
2018-03-11T05:21:55.060Z,10.01
2018-03-11T05:22:55.031Z,9.95
2018-03-11T05:23:55.048Z,9.91
2018-03-11T05:24:55.005Z,10.07
2018-03-11T05:25:54.992Z,10.02
2018-03-11T05:26:54.980Z,10.01
2018-03-11T05:27:54.987Z,10.07
2018-03-11T05:28:54.958Z,10.04
2018-03-11T05:29:54.958Z,10.02
2018-03-11T05:30:54.935Z,10.07
2018-03-11T05:31:54.924Z,9.91
2018-03-11T05:32:54.913Z,9.86
2018-03-11T05:33:54.902Z,9.92
2018-03-11T05:34:54.889Z,9.99
2018-03-11T05:35:54.878Z,9.89
2018-03-11T05:36:54.886Z,9.94
2018-03-11T05:37:54.855Z,9.89
2018-03-11T05:38:54.870Z,9.92
2018-03-11T05:39:54.867Z,9.91
2018-03-11T05:40:54.822Z,9.91
2018-03-11T05:41:55.039Z,9.92
2018-03-11T05:42:54.801Z,9.94
2018-03-11T05:43:54.788Z,9.92
2018-03-11T05:44:54.790Z,9.95
2018-03-11T05:45:54.764Z,9.99
2018-03-11T05:46:54.753Z,9.99
2018-03-11T05:47:54.742Z,9.94
2018-03-11T05:48:54.757Z,10.04
2018-03-11T05:49:54.719Z,9.98
2018-03-11T05:50:54.935Z,9.92
2018-03-11T05:51:54.696Z,10.01
2018-03-11T05:52:54.685Z,9.94
2018-03-11T05:53:54.681Z,9.99
2018-03-11T05:54:54.669Z,9.95
2018-03-11T05:55:54.650Z,9.98
2018-03-11T05:56:54.662Z,10.05
2018-03-11T05:57:54.627Z,10.01
2018-03-11T05:58:54.615Z,10.02
2018-03-11T05:59:54.605Z,9.94
2018-03-11T06:00:54.594Z,10.04
2018-03-11T06:01:54.629Z,10.07
2018-03-11T06:02:54.570Z,9.95
2018-03-11T06:03:54.762Z,9.97
2018-03-11T06:04:54.548Z,9.97
2018-03-11T06:05:54.608Z,10.10
2018-03-11T06:06:54.525Z,10.01
2018-03-11T06:07:54.552Z,9.98
2018-03-11T06:08:54.509Z,10.07
2018-03-11T06:09:54.694Z,10.04
2018-03-11T06:10:54.480Z,9.99
2018-03-11T06:11:54.472Z,9.99
2018-03-11T06:12:54.458Z,10.05
2018-03-11T06:13:54.445Z,9.98
2018-03-11T06:14:54.439Z,10.05
2018-03-11T06:15:54.424Z,10.15
2018-03-11T06:16:54.447Z,10.12
2018-03-11T06:17:54.402Z,10.09
2018-03-11T06:18:54.396Z,10.10
2018-03-11T06:19:54.380Z,9.92
2018-03-11T06:20:54.419Z,10.04
2018-03-11T06:21:54.355Z,9.92
2018-03-11T06:22:54.550Z,9.92
2018-03-11T06:23:54.333Z,9.95
2018-03-11T06:24:54.322Z,9.98
2018-03-11T06:25:54.309Z,9.89
2018-03-11T06:26:54.403Z,9.94
2018-03-11T06:27:54.286Z,9.95
2018-03-11T06:28:54.277Z,9.99
2018-03-11T06:29:54.306Z,9.95
2018-03-11T06:30:54.252Z,9.89
2018-03-11T06:31:54.241Z,9.94
2018-03-11T06:32:54.233Z,9.84
2018-03-11T06:33:54.218Z,9.89
2018-03-11T06:34:54.207Z,9.98
2018-03-11T06:35:54.196Z,10.05
2018-03-11T06:36:54.190Z,9.97
2018-03-11T06:37:54.173Z,10.10
2018-03-11T06:38:54.186Z,10.07
2018-03-11T06:39:54.152Z,10.12
2018-03-11T06:40:54.342Z,10.15
2018-03-11T06:41:54.127Z,10.22
2018-03-11T06:42:54.116Z,10.12
2018-03-11T06:43:54.204Z,10.13
2018-03-11T06:44:54.093Z,10.16
2018-03-11T06:45:54.081Z,10.23
2018-03-11T06:46:54.123Z,10.22
2018-03-11T06:47:54.060Z,10.28
2018-03-11T06:48:54.049Z,10.17
2018-03-11T06:49:54.035Z,10.26
2018-03-11T06:50:54.025Z,10.20
2018-03-11T06:51:54.013Z,10.33
2018-03-11T06:52:54.002Z,10.37
2018-03-11T06:53:53.994Z,10.42
2018-03-11T06:54:53.982Z,10.48
2018-03-11T06:55:53.968Z,10.59
2018-03-11T06:56:53.957Z,10.56
2018-03-11T06:57:54.037Z,10.57
2018-03-11T06:58:53.933Z,10.56
2018-03-11T06:59:53.922Z,10.64
2018-03-11T07:00:54.115Z,10.61
2018-03-11T07:01:53.903Z,10.71
2018-03-11T07:02:53.890Z,10.57
2018-03-11T07:03:53.924Z,10.67
2018-03-11T07:04:53.867Z,10.72
2018-03-11T07:05:53.857Z,10.75
2018-03-11T07:06:53.848Z,10.79
2018-03-11T07:07:53.841Z,10.86
2018-03-11T07:08:53.822Z,10.87
2018-03-11T07:09:53.810Z,10.97
2018-03-11T07:10:53.843Z,11.08
2018-03-11T07:11:53.789Z,11.12
2018-03-11T07:12:53.984Z,11.18
2018-03-11T07:13:53.768Z,11.25
2018-03-11T07:14:53.758Z,11.29
2018-03-11T07:15:53.962Z,11.36
2018-03-11T07:16:53.735Z,11.54
2018-03-11T07:17:53.725Z,11.57
2018-03-11T07:18:53.760Z,11.66
2018-03-11T07:19:53.707Z,11.69
2018-03-11T07:20:53.694Z,11.80
2018-03-11T07:21:53.722Z,12.02
2018-03-11T07:22:53.670Z,12.03
2018-03-11T07:23:53.660Z,12.22
2018-03-11T07:24:53.650Z,12.39
2018-03-11T07:25:53.638Z,12.55
2018-03-11T07:26:53.632Z,12.60
2018-03-11T07:27:53.624Z,12.62
2018-03-11T07:28:53.609Z,12.79
2018-03-11T07:29:53.654Z,12.80
2018-03-11T07:30:53.587Z,12.82
2018-03-11T07:31:53.579Z,12.86
2018-03-11T07:32:53.654Z,12.87
2018-03-11T07:33:53.559Z,12.87
2018-03-11T07:34:53.547Z,12.90
2018-03-11T07:35:53.565Z,12.87
2018-03-11T07:36:53.528Z,12.87
2018-03-11T07:37:53.516Z,12.91
2018-03-11T07:38:53.508Z,13.04
2018-03-11T07:39:53.498Z,13.12
2018-03-11T07:40:53.488Z,13.05
2018-03-11T07:41:53.478Z,13.04
2018-03-11T07:42:53.467Z,12.98
2018-03-11T07:43:53.496Z,13.05
2018-03-11T07:44:53.451Z,13.11
2018-03-11T07:45:53.438Z,13.11
2018-03-11T07:46:53.465Z,13.12
2018-03-11T07:47:53.421Z,13.27
2018-03-11T07:48:53.410Z,13.22
2018-03-11T07:49:53.437Z,13.23
2018-03-11T07:50:53.390Z,13.23
2018-03-11T07:51:53.382Z,13.31
2018-03-11T07:52:53.371Z,13.30
2018-03-11T07:53:53.360Z,13.33
2018-03-11T07:54:53.352Z,13.23
2018-03-11T07:55:53.341Z,13.27
2018-03-11T07:56:53.332Z,13.33
2018-03-11T07:57:53.396Z,13.31
2018-03-11T07:58:53.315Z,13.39
2018-03-11T07:59:53.304Z,13.41
2018-03-11T08:00:53.399Z,13.41
2018-03-11T08:01:53.284Z,13.47
2018-03-11T08:02:53.275Z,13.42
2018-03-11T08:03:53.313Z,13.42
2018-03-11T08:04:53.261Z,13.54
2018-03-11T08:05:53.251Z,13.50
2018-03-11T08:06:53.238Z,13.63
2018-03-11T08:07:53.229Z,13.60
2018-03-11T08:08:53.221Z,13.65
2018-03-11T08:09:53.210Z,13.63
2018-03-11T08:10:53.299Z,13.68
2018-03-11T08:11:53.193Z,13.68
2018-03-11T08:12:53.185Z,13.70
2018-03-11T08:13:53.267Z,13.70
2018-03-11T08:14:53.166Z,13.78
2018-03-11T08:15:53.157Z,13.78
2018-03-11T08:16:53.150Z,13.77
2018-03-11T08:17:53.140Z,13.78
2018-03-11T08:18:53.130Z,13.75
2018-03-11T08:19:53.121Z,13.83
2018-03-11T08:20:53.117Z,13.81
2018-03-11T08:21:53.103Z,13.86
2018-03-11T08:22:53.099Z,13.75
2018-03-11T08:23:53.086Z,13.85
2018-03-11T08:24:53.133Z,13.78
2018-03-11T08:25:53.147Z,13.90
2018-03-11T08:26:53.059Z,13.79
2018-03-11T08:27:53.259Z,13.86
2018-03-11T08:28:53.042Z,13.77
2018-03-11T08:29:53.053Z,13.77
2018-03-11T08:30:53.024Z,13.74
2018-03-11T08:31:53.016Z,13.75
2018-03-11T08:32:53.007Z,13.74
2018-03-11T08:33:52.998Z,13.83
2018-03-11T08:34:52.990Z,13.60
2018-03-11T08:35:52.980Z,13.63
2018-03-11T08:36:52.972Z,13.67
2018-03-11T08:37:52.963Z,13.71
2018-03-11T08:38:53.161Z,13.67
2018-03-11T08:39:52.945Z,13.81
2018-03-11T08:40:52.937Z,13.78
2018-03-11T08:41:52.951Z,13.78
2018-03-11T08:42:52.921Z,13.78
2018-03-11T08:43:52.912Z,13.75
2018-03-11T08:44:52.907Z,13.74
2018-03-11T08:45:52.892Z,13.75
2018-03-11T08:46:52.883Z,13.71
2018-03-11T08:47:52.874Z,13.71
2018-03-11T08:48:52.866Z,13.71
2018-03-11T08:49:52.937Z,13.78
2018-03-11T08:50:52.848Z,13.75
2018-03-11T08:51:52.839Z,13.74
2018-03-11T08:52:52.874Z,13.67
2018-03-11T08:53:52.848Z,13.65
2018-03-11T08:54:52.812Z,13.67
2018-03-11T08:55:52.832Z,13.70
2018-03-11T08:56:52.795Z,13.70
2018-03-11T08:57:52.785Z,13.63
2018-03-11T08:58:52.776Z,13.67
2018-03-11T08:59:52.767Z,13.71
2018-03-11T09:00:52.759Z,13.77
2018-03-11T09:01:52.749Z,13.71
2018-03-11T09:02:52.740Z,13.81
2018-03-11T09:03:52.812Z,13.75
2018-03-11T09:04:52.723Z,13.79
2018-03-11T09:05:52.714Z,13.78
2018-03-11T09:06:52.765Z,13.77
2018-03-11T09:07:52.699Z,13.86
2018-03-11T09:08:52.687Z,13.85
2018-03-11T09:09:52.677Z,13.96
2018-03-11T09:10:52.919Z,13.99
2018-03-11T09:11:52.663Z,14.07
2018-03-11T09:12:52.654Z,14.10
2018-03-11T09:13:52.694Z,14.14
2018-03-11T09:14:52.634Z,14.03
2018-03-11T09:15:52.626Z,14.03
2018-03-11T09:16:52.637Z,14.04
2018-03-11T09:17:52.609Z,14.10
2018-03-11T09:18:52.602Z,14.08
2018-03-11T09:19:52.593Z,14.05
2018-03-11T09:20:52.587Z,14.11
2018-03-11T09:21:52.574Z,14.18
2018-03-11T09:22:52.566Z,14.23
2018-03-11T09:23:52.558Z,14.28
2018-03-11T09:24:52.635Z,14.30
2018-03-11T09:25:52.542Z,14.32
2018-03-11T09:26:52.534Z,14.22
2018-03-11T09:27:52.732Z,14.28
2018-03-11T09:28:52.518Z,14.23
2018-03-11T09:29:52.509Z,14.23
2018-03-11T09:30:52.528Z,14.22
2018-03-11T09:31:52.496Z,14.28
2018-03-11T09:32:52.487Z,14.33
2018-03-11T09:33:52.476Z,14.25
2018-03-11T09:34:52.524Z,14.22
2018-03-11T09:35:52.461Z,14.37
2018-03-11T09:36:52.454Z,14.40
2018-03-11T09:37:52.447Z,14.41
2018-03-11T09:38:52.526Z,14.40
2018-03-11T09:39:52.428Z,14.44
2018-03-11T09:40:52.421Z,14.44
2018-03-11T09:41:52.456Z,14.48
2018-03-11T09:42:52.405Z,14.47
2018-03-11T09:43:52.398Z,14.47
2018-03-11T09:44:52.399Z,14.55
2018-03-11T09:45:52.385Z,14.59
2018-03-11T09:46:52.374Z,14.62
2018-03-11T09:47:52.370Z,14.60
2018-03-11T09:48:52.360Z,14.63
2018-03-11T09:49:52.601Z,14.68
2018-03-11T09:50:52.350Z,14.65
2018-03-11T09:51:52.338Z,14.79
2018-03-11T09:52:52.382Z,14.66
2018-03-11T09:53:52.323Z,14.78
2018-03-11T09:54:52.315Z,14.77
2018-03-11T09:55:52.356Z,14.82
2018-03-11T09:56:52.323Z,14.73
2018-03-11T09:57:52.294Z,14.72
2018-03-11T09:58:52.287Z,14.73
2018-03-11T09:59:52.282Z,14.70
2018-03-11T10:00:52.274Z,14.78
2018-03-11T10:01:52.266Z,14.70
2018-03-11T10:02:52.259Z,14.77
2018-03-11T10:03:52.477Z,14.81
2018-03-11T10:04:52.247Z,14.88
2018-03-11T10:05:52.241Z,14.85
2018-03-11T10:07:52.225Z,14.96
2018-03-11T10:08:52.306Z,14.79
2018-03-11T10:09:52.212Z,14.72
2018-03-11T10:10:52.206Z,14.73
2018-03-11T10:11:52.400Z,14.65
2018-03-11T10:12:52.190Z,14.77
2018-03-11T10:13:52.185Z,14.77
2018-03-11T10:14:52.182Z,14.81
2018-03-11T10:15:52.169Z,14.79
2018-03-11T10:16:52.163Z,14.86
2018-03-11T10:17:52.161Z,14.92
2018-03-11T10:18:52.152Z,14.99
2018-03-11T10:19:52.142Z,15.00
2018-03-11T10:20:52.136Z,15.02
2018-03-11T10:21:52.181Z,15.02
2018-03-11T10:22:52.326Z,14.97
2018-03-11T10:23:52.116Z,15.07
2018-03-11T10:24:52.110Z,14.99
2018-03-11T10:25:52.306Z,14.99
2018-03-11T10:26:52.101Z,14.97
2018-03-11T10:27:52.090Z,15.02
2018-03-11T10:28:52.087Z,15.04
2018-03-11T10:29:52.077Z,15.17
2018-03-11T10:30:52.072Z,15.21
2018-03-11T10:31:52.066Z,15.25
2018-03-11T10:32:52.060Z,15.19
2018-03-11T10:33:52.056Z,15.11
2018-03-11T10:34:52.048Z,15.18
2018-03-11T10:35:52.040Z,15.27
2018-03-11T10:36:52.238Z,15.27
2018-03-11T10:37:52.035Z,15.28
2018-03-11T10:38:52.023Z,15.29
2018-03-11T10:39:52.048Z,15.27
2018-03-11T10:40:52.021Z,15.17
2018-03-11T10:41:52.006Z,15.29
2018-03-11T10:42:51.999Z,15.33
2018-03-11T10:43:52.002Z,15.49
2018-03-11T10:44:51.988Z,15.42
2018-03-11T10:45:51.982Z,15.33
2018-03-11T10:46:51.977Z,15.39
2018-03-11T10:47:52.058Z,15.37
2018-03-11T10:48:51.967Z,15.36
2018-03-11T10:49:51.962Z,15.36
2018-03-11T10:50:52.076Z,15.42
2018-03-11T10:51:51.949Z,15.55
2018-03-11T10:52:51.943Z,15.68
2018-03-11T10:53:51.951Z,15.67
2018-03-11T10:54:51.933Z,15.67
2018-03-11T10:55:51.928Z,15.67
2018-03-11T10:56:51.924Z,15.73
2018-03-11T10:57:51.917Z,15.75
2018-03-11T10:58:51.945Z,15.68
2018-03-11T10:59:51.909Z,15.64
2018-03-11T11:00:51.904Z,15.62
2018-03-11T11:02:51.890Z,15.55
2018-03-11T11:03:51.886Z,15.58
2018-03-11T11:04:51.905Z,15.58
2018-03-11T11:05:51.875Z,15.57
2018-03-11T11:06:51.869Z,15.51
2018-03-11T11:07:51.868Z,15.37
2018-03-11T11:09:51.856Z,15.39
2018-03-11T11:10:51.847Z,15.59
2018-03-11T11:11:51.876Z,15.39
2018-03-11T11:12:51.837Z,15.25
2018-03-11T11:13:51.832Z,15.31
2018-03-11T11:14:51.825Z,15.31
2018-03-11T11:15:51.820Z,15.39
2018-03-11T11:16:51.815Z,15.40
2018-03-11T11:17:51.808Z,15.47
2018-03-11T11:18:51.803Z,15.61
2018-03-11T11:19:52.046Z,15.57
2018-03-11T11:20:51.796Z,15.64
2018-03-11T11:21:51.786Z,15.58
2018-03-11T11:22:51.984Z,15.64
2018-03-11T11:23:51.781Z,15.62
2018-03-11T11:24:51.770Z,15.70
2018-03-11T11:25:51.789Z,15.64
2018-03-11T11:26:51.764Z,15.67
2018-03-11T11:27:51.756Z,15.65
2018-03-11T11:28:51.748Z,15.64
2018-03-11T11:29:51.742Z,15.62
2018-03-11T11:30:51.993Z,15.58
2018-03-11T11:31:51.732Z,15.57
2018-03-11T11:32:51.726Z,15.59
2018-03-11T11:33:51.784Z,15.57
2018-03-11T11:34:51.716Z,15.54
2018-03-11T11:35:51.710Z,15.40
2018-03-11T11:36:51.736Z,15.28
2018-03-11T11:37:51.697Z,15.28
2018-03-11T11:38:51.691Z,15.24
2018-03-11T11:39:51.685Z,15.24
2018-03-11T11:40:51.679Z,15.31
2018-03-11T11:41:51.672Z,15.27
2018-03-11T11:42:51.667Z,15.33
2018-03-11T11:43:51.661Z,15.35
2018-03-11T11:44:51.859Z,15.36
2018-03-11T11:45:51.648Z,15.40
2018-03-11T11:46:51.642Z,15.40
2018-03-11T11:47:51.842Z,15.36
2018-03-11T11:48:51.716Z,15.42
2018-03-11T11:49:51.623Z,15.37
2018-03-11T11:50:51.617Z,15.55
2018-03-11T11:51:51.611Z,15.59
2018-03-11T11:52:51.604Z,15.52
2018-03-11T11:53:51.598Z,15.61
2018-03-11T11:54:51.592Z,15.52
2018-03-11T11:55:51.792Z,15.43
2018-03-11T11:56:51.579Z,15.51
2018-03-11T11:57:51.573Z,15.42
2018-03-11T11:58:51.769Z,15.29
2018-03-11T11:59:51.562Z,15.24
2018-03-11T12:00:51.554Z,15.22
2018-03-11T12:01:51.575Z,15.35
2018-03-11T12:02:51.541Z,15.39
2018-03-11T12:03:51.538Z,15.36
2018-03-11T12:04:51.528Z,15.36
2018-03-11T12:05:51.521Z,15.39
2018-03-11T12:06:51.514Z,15.39
2018-03-11T12:07:51.508Z,15.51
2018-03-11T12:08:51.581Z,15.47
2018-03-11T12:09:51.498Z,15.37
2018-03-11T12:10:51.488Z,15.42
2018-03-11T12:11:51.508Z,15.36
2018-03-11T12:12:51.477Z,15.29
2018-03-11T12:13:51.467Z,15.24
2018-03-11T12:14:51.461Z,15.17
2018-03-11T12:15:51.455Z,15.24
2018-03-11T12:16:51.447Z,15.25
2018-03-11T12:17:51.441Z,15.28
2018-03-11T12:18:51.434Z,15.47
2018-03-11T12:19:51.501Z,15.42
2018-03-11T12:20:51.423Z,15.58
2018-03-11T12:21:51.413Z,15.62
2018-03-11T12:22:51.448Z,15.57
2018-03-11T12:23:51.403Z,15.58
2018-03-11T12:24:51.393Z,15.54
2018-03-11T12:25:51.387Z,15.54
2018-03-11T12:26:51.380Z,15.59
2018-03-11T12:27:51.388Z,15.52
2018-03-11T12:28:51.367Z,15.57
2018-03-11T12:29:51.359Z,15.59
2018-03-11T12:30:51.353Z,15.44
2018-03-11T12:31:51.347Z,15.42
2018-03-11T12:32:51.342Z,15.49
2018-03-11T12:33:51.536Z,15.44
2018-03-11T12:34:51.326Z,15.39
2018-03-11T12:35:51.320Z,15.37
2018-03-11T12:36:51.336Z,15.42
2018-03-11T12:37:51.309Z,15.43
2018-03-11T12:38:51.303Z,15.43
2018-03-11T12:39:51.293Z,15.52
2018-03-11T12:40:51.287Z,15.42
2018-03-11T12:41:51.280Z,15.39
2018-03-11T12:42:51.272Z,15.46
2018-03-11T12:43:51.266Z,15.40
2018-03-11T12:44:51.356Z,15.47
2018-03-11T12:45:51.251Z,15.44
2018-03-11T12:46:51.246Z,15.42
2018-03-11T12:47:51.291Z,15.43
2018-03-11T12:48:51.232Z,15.44
2018-03-11T12:49:51.225Z,15.52
2018-03-11T12:50:51.219Z,15.42
2018-03-11T12:51:51.212Z,15.44
2018-03-11T12:52:51.206Z,15.47
2018-03-11T12:53:51.202Z,15.46
2018-03-11T12:54:51.192Z,15.40
2018-03-11T12:55:51.204Z,15.39
2018-03-11T12:56:51.179Z,15.25
2018-03-11T12:57:51.172Z,15.25
2018-03-11T12:58:51.204Z,15.07
2018-03-11T12:59:51.158Z,15.18
2018-03-11T13:00:51.152Z,15.18
2018-03-11T13:01:51.171Z,15.17
2018-03-11T13:02:51.139Z,15.21